Elbella — 9HA2358 — position and weather

sailwx.info

Track history (hours):
 
Tides and Currents Weather Stations Pressure Air Temp Water Temp Dewpoint Dewpoint Depression Visibility Wind Speed Wind Dir Waves Ship Positions

Elbella

Last reported at 2014-Nov-27 06:33 UTC. Time now 2014-Nov-28 04:11 UTC.
Position N 35°52' E 024°12'.

Length 176 m; draft 7.8 m.

Type: Ship (hazmat cat A). MMSI: 248422000.

Date/timePositionNaut miles runAvg speedWind from/ knotsBaromVisibWave heightAir tempDewpointWater temp
2014-Nov-27 06:33N 35°52' E 024°12'1313.5
2014-Nov-27 05:33N 35°54' E 024°28'1413.6
2014-Nov-27 04:33N 35°56' E 024°45'1313.3
2014-Nov-27 03:33N 35°58' E 025°01'1313.0
2014-Nov-27 02:33N 35°60' E 025°17'1312.8
2014-Nov-27 01:33N 36°02' E 025°33'1212.5
2014-Nov-27 00:34N 36°04' E 025°48'1212.1
2014-Nov-26 23:33N 36°05' E 026°03'1212.1
2014-Nov-26 22:33N 36°07' E 026°18'1211.5
2014-Nov-26 21:33N 36°07' E 026°32'  
Track history (hours):
 
Tides and Currents Weather Stations Pressure Air Temp Water Temp Dewpoint Dewpoint Depression Visibility Wind Speed Wind Dir Waves Ship Positions

Elbella

Last reported at 2014-Nov-27 06:33 UTC. Time now 2014-Nov-28 04:11 UTC.
Position N 35°52' E 024°12'.

Length 176 m; draft 7.8 m.

Type: Ship (hazmat cat A). MMSI: 248422000.

Date/timePositionNaut miles runAvg speedWind from/ knotsBaromVisibWave heightAir tempDewpointWater temp
2014-Nov-27 06:33N 35°52' E 024°12'1313.5
2014-Nov-27 05:33N 35°54' E 024°28'1413.6
2014-Nov-27 04:33N 35°56' E 024°45'1313.3
2014-Nov-27 03:33N 35°58' E 025°01'1313.0
2014-Nov-27 02:33N 35°60' E 025°17'1312.8
2014-Nov-27 01:33N 36°02' E 025°33'1212.5
2014-Nov-27 00:34N 36°04' E 025°48'1212.1
2014-Nov-26 23:33N 36°05' E 026°03'1212.1
2014-Nov-26 22:33N 36°07' E 026°18'1211.5
2014-Nov-26 21:33N 36°07' E 026°32'  

Dump ship's entire track history